SBKG/CPV METAR and TAF weather

Enter ICAO airport designator
Station Type Date Time Source
SBKG METAR 2020/07/03 12:00 UTC NOAA

SBKG 031200Z 09008KT 9999 BKN020 25/20 Q1018


Station Type Date Time Source
SBKG Decoded METAR 2020/07/03 12:00 UTC NOAA

Campina Grande, Brazil (SBKG) 07-13S 035-53W
Jul 03, 2020 - 08:00 AM EDT / 2020.07.03 1200 UTC
Wind: from the E (090 degrees) at 9 MPH (8 KT):0
Visibility: greater than 7 mile(s):0
Sky conditions: mostly cloudy
Temperature: 77 F (25 C)
Dew Point: 68 F (20 C)
Relative Humidity: 73%
Pressure (altimeter): 30.06 in. Hg (1018 hPa)
ob: SBKG 031200Z 09008KT 9999 BKN020 25/20 Q1018
cycle: 12

Station Type Date Time Source
SBKG TAF 2020/07/03 12:42 UTC NOAA

TAF SBKG 031000Z 0312/0324 15008KT 9999 SCT025 TX28/0316Z TN23/0323Z
RMK PCH

Example: see airport list